עמוד ראשי
METAR-TAF:

METAR-TAF

שדות תעופה :

נמל התעופה הבינלאומי הונולולו

הונולולו, הוואי, ארצות הברית

קו רוחב: 21-19-39N, קו אורך: 157-56-35W, גובה: 3מטר

תצפית מזג אוויר נוכחית

הדו"ח נערך לפני 48דקות, בשעה 11:53 UTC
רוח 6קשר מכיוון צפון-מערב
טמפרטורת 20 צלסיוס
לחות 83%
לחץ 1016 hPa
ראות: 16.1קילומטר
מעט עננים בגובה 3000רגל
מעט עננים בגובה 5000רגל

METAR: PHNL 171153Z 32006KT 10SM FEW030 FEW050 20/17 A3001 RMK AO2 SLP161 T02000167 10233 20200 58004

זמן: 02:41 (12:41 UTC)

תחזית

הדו"ח נערך לפני 1 שעות ו 1דקות, בשעה 11:40 UTC
תחזית בתוקף מ 17 ב 12 UTC עד 18 ב 18 UTC
רוח 6קשר עם כיוונים משתנים
ראות: 10קילומטר
מעט עננים בגובה 2500רגל
עננים פזורים בגובה 5000רגל
מ 17 ב 2000UTC
רוח 11קשר מכיוון צפון-מזרח
ראות: 10קילומטר
מעט עננים בגובה 2500רגל
עננים פזורים בגובה 5000רגל
מ 18 ב 0600UTC
רוח 6קשר עם כיוונים משתנים
ראות: 10קילומטר
עננים פזורים בגובה 2500רגל
עננים פזורים בגובה 5000רגל

TAF: PHNL 171140Z 1712/1818 VRB06KT P6SM FEW025 SCT050 FM172000 05011KT P6SM FEW025 SCT050 FM180600 VRB06KT P6SM SCT025 SCT050

תצפיות ותחזיות מזג אוויר לגבי יותר מ- 4,000 שדות תעופה ברחבי העולם. דוחות METAR ו- TAF.

התחנות הזמינות מסומנות בנקודות צהובות ואדומות על גבי המפה.

העבר את העכבר לנקודה הצבעונית על מנת לראות את שם התחנה.

לאחר מכן, לחץ כדי לראות את תוכן ואת תחזיות מזג האוויר.

כדי לשנות את המפה: לחץ על הכפתורים הירוקים עם הפלוס השחור כדי להתקרב; על הכפתור הירוק עם המקף כדי להתרחק; או בחיצים הירוקים למפות סמוכות.


METAR-TAF: